createdAt,value
2018-07-09T00:00:15.030Z,13.60
2018-07-09T00:02:42.278Z,13.41
2018-07-09T00:05:09.421Z,13.38
2018-07-09T00:07:36.427Z,13.37
2018-07-09T00:10:03.467Z,13.29
2018-07-09T00:12:30.496Z,13.48
2018-07-09T00:14:57.526Z,13.31
2018-07-09T00:17:24.518Z,13.27
2018-07-09T00:19:51.630Z,13.28
2018-07-09T00:22:18.715Z,13.29
2018-07-09T00:24:45.791Z,13.21
2018-07-09T00:27:13.084Z,13.25
2018-07-09T00:29:40.111Z,13.13
2018-07-09T00:32:07.222Z,13.04
2018-07-09T00:34:34.246Z,12.96
2018-07-09T00:37:01.251Z,13.02
2018-07-09T00:39:28.341Z,12.94
2018-07-09T00:41:55.383Z,12.87
2018-07-09T00:44:22.400Z,12.85
2018-07-09T00:46:49.666Z,12.89
2018-07-09T00:49:16.786Z,12.88
2018-07-09T00:51:43.811Z,12.76
2018-07-09T00:54:10.858Z,12.77
2018-07-09T00:56:37.848Z,12.65
2018-07-09T00:59:04.856Z,12.60
2018-07-09T01:01:31.894Z,12.65
2018-07-09T01:03:58.994Z,12.58
2018-07-09T01:06:25.980Z,12.55
2018-07-09T01:08:53.022Z,12.60
2018-07-09T01:11:31.477Z,12.59
2018-07-09T01:13:58.505Z,12.59
2018-07-09T01:16:25.508Z,12.48
2018-07-09T01:18:52.553Z,12.51
2018-07-09T01:21:19.606Z,12.52
2018-07-09T01:23:46.648Z,12.39
2018-07-09T01:26:13.664Z,12.40
2018-07-09T01:28:41.441Z,12.43
2018-07-09T01:31:08.478Z,12.42
2018-07-09T01:33:37.345Z,12.42
2018-07-09T01:36:04.395Z,12.31
2018-07-09T01:38:31.489Z,12.27
2018-07-09T01:40:58.532Z,12.31
2018-07-09T01:43:25.560Z,12.30
2018-07-09T01:45:52.636Z,12.23
2018-07-09T01:48:19.662Z,12.20
2018-07-09T01:50:46.824Z,12.26
2018-07-09T01:53:13.825Z,12.30
2018-07-09T01:55:40.897Z,12.26
2018-07-09T01:58:07.896Z,12.31
2018-07-09T02:00:35.208Z,12.37
2018-07-09T02:03:02.225Z,12.27
2018-07-09T02:05:29.350Z,12.15
2018-07-09T02:07:56.459Z,12.17
2018-07-09T02:10:23.493Z,12.12
2018-07-09T02:12:50.509Z,12.17
2018-07-09T02:15:17.921Z,12.11
2018-07-09T02:17:45.038Z,12.14
2018-07-09T02:20:12.127Z,12.03
2018-07-09T02:22:39.133Z,12.13
2018-07-09T02:25:11.623Z,12.13
2018-07-09T02:27:41.088Z,12.11
2018-07-09T02:30:08.120Z,12.07
2018-07-09T02:32:35.211Z,12.08
2018-07-09T02:35:02.412Z,12.08
2018-07-09T02:37:29.422Z,11.99
2018-07-09T02:39:56.422Z,11.97
2018-07-09T02:42:23.438Z,11.93
2018-07-09T02:44:50.458Z,11.96
2018-07-09T02:47:17.545Z,11.86
2018-07-09T02:49:44.565Z,11.99
2018-07-09T02:52:12.422Z,11.98
2018-07-09T02:54:39.427Z,12.10
2018-07-09T02:57:06.448Z,12.05
2018-07-09T02:59:33.500Z,12.00
2018-07-09T03:02:00.501Z,12.10
2018-07-09T03:04:27.679Z,12.01
2018-07-09T03:06:54.812Z,12.00
2018-07-09T03:09:21.818Z,11.98
2018-07-09T03:11:48.889Z,11.99
2018-07-09T03:14:15.933Z,11.91
2018-07-09T03:16:42.890Z,12.04
2018-07-09T03:19:09.943Z,12.11
2018-07-09T03:21:36.932Z,12.15
2018-07-09T03:24:03.981Z,12.15
2018-07-09T03:26:31.026Z,12.26
2018-07-09T03:28:58.030Z,12.18
2018-07-09T03:31:25.065Z,12.16
2018-07-09T03:33:52.064Z,12.09
2018-07-09T03:36:19.093Z,12.13
2018-07-09T03:38:46.206Z,12.15
2018-07-09T03:41:13.294Z,12.18
2018-07-09T03:43:40.285Z,12.18
2018-07-09T03:46:07.287Z,12.20
2018-07-09T03:48:34.301Z,12.29
2018-07-09T03:51:01.318Z,12.33
2018-07-09T03:53:28.316Z,12.38
2018-07-09T03:55:55.341Z,12.52
2018-07-09T03:58:22.341Z,12.56
2018-07-09T04:00:49.341Z,12.61
2018-07-09T04:03:17.828Z,12.61
2018-07-09T04:05:46.383Z,12.64
2018-07-09T04:08:13.518Z,12.72
2018-07-09T04:10:41.966Z,12.84
2018-07-09T04:13:09.120Z,12.90
2018-07-09T04:15:36.287Z,12.90
2018-07-09T04:18:03.296Z,12.96
2018-07-09T04:20:30.317Z,12.94
2018-07-09T04:22:57.318Z,13.09
2018-07-09T04:25:25.423Z,13.18
2018-07-09T04:27:52.420Z,13.52
2018-07-09T04:30:19.429Z,13.40
2018-07-09T04:32:46.436Z,13.32
2018-07-09T04:35:20.463Z,13.42
2018-07-09T04:37:47.751Z,13.47
2018-07-09T04:40:14.749Z,13.58
2018-07-09T04:42:41.725Z,13.58
2018-07-09T04:45:08.809Z,13.76
2018-07-09T04:47:35.796Z,13.74
2018-07-09T04:50:03.560Z,13.75
2018-07-09T04:52:31.448Z,13.78
2018-07-09T04:54:58.501Z,13.85
2018-07-09T04:57:25.667Z,13.94
2018-07-09T04:59:52.677Z,14.05
2018-07-09T05:02:19.789Z,14.04
2018-07-09T05:04:47.857Z,14.11
2018-07-09T05:07:15.057Z,14.21
2018-07-09T05:09:42.096Z,14.33
2018-07-09T05:12:09.215Z,14.36
2018-07-09T05:14:36.299Z,14.42
2018-07-09T05:17:03.445Z,14.42
2018-07-09T05:19:30.500Z,14.49
2018-07-09T05:21:57.526Z,14.51
2018-07-09T05:24:24.620Z,14.54
2018-07-09T05:26:52.009Z,14.55
2018-07-09T05:29:19.029Z,14.64
2018-07-09T05:31:46.136Z,14.72
2018-07-09T05:34:13.240Z,14.80
2018-07-09T05:36:40.268Z,14.82
2018-07-09T05:39:07.604Z,14.84
2018-07-09T05:41:34.701Z,14.88
2018-07-09T05:44:02.177Z,14.93
2018-07-09T05:46:29.255Z,15.01
2018-07-09T05:48:57.041Z,15.07
2018-07-09T05:51:24.322Z,15.15
2018-07-09T05:53:51.414Z,15.19
2018-07-09T05:56:18.541Z,15.23
2018-07-09T05:58:45.588Z,15.31
2018-07-09T06:01:12.857Z,15.34
2018-07-09T06:03:40.052Z,15.42
2018-07-09T06:06:07.222Z,15.42
2018-07-09T06:08:34.365Z,15.48
2018-07-09T06:11:01.545Z,15.53
2018-07-09T06:13:29.324Z,15.65
2018-07-09T06:15:56.476Z,15.68
2018-07-09T06:18:23.730Z,15.73
2018-07-09T06:20:50.853Z,15.79
2018-07-09T06:23:18.383Z,15.88
2018-07-09T06:25:45.452Z,16.02
2018-07-09T06:28:12.672Z,16.01
2018-07-09T06:30:39.906Z,16.02
2018-07-09T06:33:06.925Z,16.07
2018-07-09T06:35:33.941Z,16.10
2018-07-09T06:38:01.736Z,16.12
2018-07-09T06:40:29.052Z,16.26
2018-07-09T06:42:57.794Z,16.42
2018-07-09T06:45:25.725Z,16.54
2018-07-09T06:47:52.816Z,16.60
2018-07-09T06:50:19.940Z,16.73
2018-07-09T06:52:47.157Z,16.80
2018-07-09T06:55:14.393Z,16.88
2018-07-09T06:57:41.780Z,16.82
2018-07-09T07:00:08.816Z,16.88
2018-07-09T07:02:35.926Z,16.90
2018-07-09T07:05:02.965Z,16.87
2018-07-09T07:07:30.022Z,16.87
2018-07-09T07:09:57.019Z,16.93
2018-07-09T07:12:24.037Z,16.83
2018-07-09T07:14:51.258Z,16.87
2018-07-09T07:17:18.311Z,16.64
2018-07-09T07:19:45.350Z,16.69
2018-07-09T07:22:12.397Z,16.57
2018-07-09T07:24:39.392Z,16.65
2018-07-09T07:27:06.454Z,16.76
2018-07-09T07:29:33.501Z,16.86
2018-07-09T07:32:00.522Z,16.96
2018-07-09T07:34:27.579Z,17.08
2018-07-09T07:36:54.740Z,17.15
2018-07-09T07:39:21.833Z,17.28
2018-07-09T07:41:48.799Z,17.50
2018-07-09T07:44:15.990Z,17.64
2018-07-09T07:46:43.214Z,17.68
2018-07-09T07:49:10.249Z,17.87
2018-07-09T07:51:37.807Z,18.01
2018-07-09T07:56:38.932Z,18.26
2018-07-09T07:59:05.976Z,18.34
2018-07-09T08:01:32.998Z,18.22
2018-07-09T08:04:00.985Z,18.12
2018-07-09T08:06:28.001Z,18.30
2018-07-09T08:08:55.098Z,18.50
2018-07-09T08:11:47.688Z,18.69
2018-07-09T08:13:49.354Z,18.83
2018-07-09T08:16:16.424Z,18.93
2018-07-09T08:18:43.573Z,19.29
2018-07-09T08:21:10.658Z,19.36
2018-07-09T08:23:37.830Z,19.21
2018-07-09T08:26:04.925Z,19.09
2018-07-09T08:28:32.075Z,19.16
2018-07-09T08:30:59.404Z,19.40
2018-07-09T08:33:26.405Z,19.59
2018-07-09T08:35:53.476Z,19.73
2018-07-09T08:38:20.686Z,19.49
2018-07-09T08:40:47.775Z,19.39
2018-07-09T08:43:14.986Z,19.48
2018-07-09T08:45:42.145Z,19.61
2018-07-09T08:48:10.733Z,19.87
2018-07-09T08:50:37.825Z,19.71
2018-07-09T08:53:05.082Z,19.37
2018-07-09T08:55:32.194Z,19.35
2018-07-09T08:57:59.220Z,19.42
2018-07-09T09:00:26.262Z,19.62
2018-07-09T09:02:53.285Z,19.81
2018-07-09T09:05:21.263Z,19.81
2018-07-09T09:07:48.303Z,19.70
2018-07-09T09:10:15.568Z,19.57
2018-07-09T09:12:42.614Z,19.30
2018-07-09T09:15:09.797Z,19.32
2018-07-09T09:17:36.874Z,19.47
2018-07-09T09:20:03.953Z,19.61
2018-07-09T09:22:31.046Z,19.67
2018-07-09T09:24:58.094Z,19.54
2018-07-09T09:27:25.298Z,19.42
2018-07-09T09:29:52.336Z,19.35
2018-07-09T09:32:19.409Z,19.21
2018-07-09T09:34:46.438Z,19.22
2018-07-09T09:37:13.583Z,19.04
2018-07-09T09:39:40.642Z,18.63
2018-07-09T09:42:07.732Z,18.63
2018-07-09T09:44:35.954Z,18.80
2018-07-09T09:47:03.102Z,18.92
2018-07-09T09:49:30.388Z,18.91
2018-07-09T09:51:57.485Z,18.89
2018-07-09T09:54:24.693Z,18.92
2018-07-09T09:56:51.849Z,18.97
2018-07-09T09:59:18.913Z,19.08
2018-07-09T10:01:45.965Z,18.96
2018-07-09T10:04:12.980Z,18.73
2018-07-09T10:06:40.007Z,18.48
2018-07-09T10:09:07.574Z,18.38
2018-07-09T10:11:34.630Z,18.74
2018-07-09T10:14:01.746Z,19.06
2018-07-09T10:16:28.866Z,19.05
2018-07-09T10:18:56.797Z,19.18
2018-07-09T10:21:23.901Z,19.23
2018-07-09T10:23:51.024Z,19.38
2018-07-09T10:26:18.445Z,19.48
2018-07-09T10:28:45.489Z,19.29
2018-07-09T10:31:12.670Z,18.93
2018-07-09T10:33:39.721Z,18.71
2018-07-09T10:36:07.334Z,18.87
2018-07-09T10:38:34.427Z,18.97
2018-07-09T10:41:01.511Z,18.96
2018-07-09T10:43:28.548Z,18.82
2018-07-09T10:45:55.655Z,18.84
2018-07-09T10:48:22.721Z,18.72
2018-07-09T10:50:49.784Z,18.90
2018-07-09T10:53:16.931Z,18.98
2018-07-09T10:55:44.648Z,18.82
2018-07-09T10:58:11.657Z,18.54
2018-07-09T11:00:38.808Z,18.62
2018-07-09T11:03:05.943Z,18.71
2018-07-09T11:05:33.010Z,18.80
2018-07-09T11:08:00.275Z,19.09
2018-07-09T11:10:27.364Z,19.20
2018-07-09T11:12:54.530Z,19.09
2018-07-09T11:15:21.556Z,18.92
2018-07-09T11:17:48.565Z,18.87
2018-07-09T11:20:15.652Z,18.76
2018-07-09T11:22:42.732Z,18.51
2018-07-09T11:25:09.798Z,18.54
2018-07-09T11:27:36.950Z,18.40
2018-07-09T11:30:04.930Z,18.34
2018-07-09T11:32:32.119Z,18.28
2018-07-09T11:34:59.763Z,18.25
2018-07-09T11:37:26.867Z,18.40
2018-07-09T11:39:53.943Z,18.40
2018-07-09T11:42:21.087Z,18.44
2018-07-09T11:44:55.513Z,18.62
2018-07-09T11:47:25.678Z,18.72
2018-07-09T11:49:52.739Z,18.56
2018-07-09T11:52:19.793Z,18.83
2018-07-09T11:54:46.884Z,18.97
2018-07-09T11:57:14.009Z,18.88
2018-07-09T11:59:41.092Z,18.78
2018-07-09T12:02:09.095Z,18.80
2018-07-09T12:04:36.162Z,18.91
2018-07-09T12:07:03.257Z,18.94
2018-07-09T12:09:31.024Z,19.12
2018-07-09T12:11:58.094Z,19.18
2018-07-09T12:14:25.163Z,19.23
2018-07-09T12:16:52.434Z,18.99
2018-07-09T12:19:19.630Z,18.65
2018-07-09T12:21:46.818Z,18.51
2018-07-09T12:24:14.126Z,18.58
2018-07-09T12:26:41.212Z,18.37
2018-07-09T12:29:08.334Z,18.39
2018-07-09T12:31:35.429Z,18.53
2018-07-09T12:34:02.501Z,18.62
2018-07-09T12:36:29.788Z,18.52
2018-07-09T12:38:56.895Z,18.59
2018-07-09T12:41:24.072Z,18.26
2018-07-09T12:43:51.184Z,18.15
2018-07-09T12:46:18.243Z,18.01
2018-07-09T12:48:45.316Z,17.76
2018-07-09T12:51:12.719Z,17.71
2018-07-09T12:53:39.808Z,17.72
2018-07-09T12:56:06.887Z,17.81
2018-07-09T12:58:33.983Z,17.91
2018-07-09T13:01:01.091Z,17.89
2018-07-09T13:03:28.225Z,17.59
2018-07-09T13:05:55.343Z,17.70
2018-07-09T13:08:22.442Z,17.66
2018-07-09T13:10:49.535Z,17.48
2018-07-09T13:13:16.638Z,17.45
2018-07-09T13:15:43.724Z,17.37
2018-07-09T13:18:10.794Z,17.35
2018-07-09T13:20:37.899Z,17.47
2018-07-09T13:23:05.050Z,17.47
2018-07-09T13:25:32.140Z,17.50
2018-07-09T13:27:59.256Z,17.53
2018-07-09T13:30:26.332Z,17.47
2018-07-09T13:32:53.372Z,16.81
2018-07-09T13:35:20.533Z,17.31
2018-07-09T13:37:47.656Z,17.38
2018-07-09T13:40:14.785Z,17.35
2018-07-09T13:42:41.905Z,17.51
2018-07-09T13:45:08.988Z,17.35
2018-07-09T13:47:36.051Z,17.22
2018-07-09T13:50:03.391Z,17.10
2018-07-09T13:52:30.579Z,17.19
2018-07-09T13:54:57.746Z,17.10
2018-07-09T13:57:24.819Z,17.03
2018-07-09T13:59:51.927Z,17.19
2018-07-09T14:02:19.826Z,17.18
2018-07-09T14:04:46.895Z,17.33
2018-07-09T14:07:14.017Z,17.33
2018-07-09T14:09:41.135Z,17.26
2018-07-09T14:12:08.243Z,17.16
2018-07-09T14:14:35.341Z,17.27
2018-07-09T14:17:02.458Z,17.18
2018-07-09T14:20:39.855Z,17.30
2018-07-09T14:23:08.059Z,17.30
2018-07-09T14:25:35.264Z,17.29
2018-07-09T14:28:02.454Z,17.32
2018-07-09T14:30:29.563Z,17.50
2018-07-09T14:32:56.650Z,17.42
2018-07-09T14:35:23.936Z,17.31
2018-07-09T14:37:52.570Z,17.26
2018-07-09T14:40:19.794Z,17.25
2018-07-09T14:42:46.892Z,17.18
2018-07-09T14:45:14.121Z,17.40
2018-07-09T14:47:41.161Z,17.38
2018-07-09T14:50:08.616Z,17.53
2018-07-09T14:52:35.736Z,17.67
2018-07-09T14:55:02.942Z,17.56
2018-07-09T14:57:30.071Z,17.53
2018-07-09T14:59:57.143Z,17.55
2018-07-09T15:02:24.266Z,17.29
2018-07-09T15:04:51.764Z,17.39
2018-07-09T15:07:18.888Z,17.27
2018-07-09T15:09:46.023Z,17.18
2018-07-09T15:12:13.183Z,17.09
2018-07-09T15:14:40.292Z,17.19
2018-07-09T15:17:07.766Z,17.08
2018-07-09T15:19:34.889Z,16.99
2018-07-09T15:22:02.007Z,17.11
2018-07-09T15:24:29.111Z,17.03
2018-07-09T15:26:56.211Z,17.14
2018-07-09T15:29:23.362Z,17.31
2018-07-09T15:32:02.102Z,17.39
2018-07-09T15:34:29.178Z,17.25
2018-07-09T15:36:56.282Z,17.13
2018-07-09T15:39:23.369Z,17.04
2018-07-09T15:41:50.462Z,16.93
2018-07-09T15:44:17.630Z,17.02
2018-07-09T15:46:44.787Z,17.22
2018-07-09T15:49:11.939Z,17.50
2018-07-09T15:51:39.044Z,17.59
2018-07-09T15:54:06.118Z,17.51
2018-07-09T15:56:33.259Z,17.31
2018-07-09T15:59:00.330Z,17.03
2018-07-09T16:01:28.004Z,17.02
2018-07-09T16:03:55.157Z,16.99
2018-07-09T16:06:22.658Z,16.85
2018-07-09T16:08:49.767Z,16.80
2018-07-09T16:11:18.104Z,16.77
2018-07-09T16:13:45.393Z,16.60
2018-07-09T16:16:13.406Z,16.60
2018-07-09T16:18:40.962Z,16.35
2018-07-09T16:21:08.439Z,16.28
2018-07-09T16:23:35.866Z,16.23
2018-07-09T16:26:03.353Z,16.32
2018-07-09T16:28:30.474Z,16.34
2018-07-09T16:30:57.586Z,16.31
2018-07-09T16:33:24.719Z,16.34
2018-07-09T16:35:51.799Z,16.39
2018-07-09T16:38:18.887Z,16.46
2018-07-09T16:40:46.046Z,16.52
2018-07-09T16:43:13.138Z,16.62
2018-07-09T16:45:40.223Z,16.55
2018-07-09T16:48:07.413Z,16.53
2018-07-09T16:50:34.525Z,16.71
2018-07-09T16:53:01.624Z,16.93
2018-07-09T16:55:29.127Z,16.77
2018-07-09T16:57:56.850Z,16.72
2018-07-09T17:00:23.965Z,16.62
2018-07-09T17:02:51.187Z,16.55
2018-07-09T17:05:18.288Z,16.54
2018-07-09T17:07:45.400Z,16.62
2018-07-09T17:10:12.527Z,16.64
2018-07-09T17:12:39.895Z,16.68
2018-07-09T17:15:07.006Z,16.35
2018-07-09T17:17:34.149Z,16.40
2018-07-09T17:20:01.272Z,16.31
2018-07-09T17:22:28.369Z,16.23
2018-07-09T17:24:55.448Z,16.23
2018-07-09T17:27:22.661Z,16.21
2018-07-09T17:29:49.765Z,16.13
2018-07-09T17:32:16.838Z,16.15
2018-07-09T17:34:44.003Z,16.10
2018-07-09T17:37:11.099Z,16.06
2018-07-09T17:39:38.246Z,16.03
2018-07-09T17:42:05.563Z,15.94
2018-07-09T17:44:32.681Z,15.84
2018-07-09T17:46:59.743Z,15.86
2018-07-09T17:49:26.855Z,15.78
2018-07-09T17:51:53.951Z,15.75
2018-07-09T17:54:21.347Z,15.64
2018-07-09T17:56:48.420Z,15.61
2018-07-09T17:59:15.543Z,15.41
2018-07-09T18:01:42.747Z,15.45
2018-07-09T18:04:09.824Z,15.45
2018-07-09T18:06:36.934Z,15.47
2018-07-09T18:09:04.976Z,15.41
2018-07-09T18:11:32.056Z,15.36
2018-07-09T18:13:59.190Z,15.32
2018-07-09T18:16:26.485Z,15.38
2018-07-09T18:18:53.569Z,15.25
2018-07-09T18:21:20.705Z,15.22
2018-07-09T18:23:47.796Z,15.18
2018-07-09T18:26:14.877Z,15.23
2018-07-09T18:28:41.966Z,15.30
2018-07-09T18:31:09.110Z,15.33
2018-07-09T18:33:36.240Z,15.46
2018-07-09T18:36:03.452Z,15.19
2018-07-09T18:38:32.388Z,15.08
2018-07-09T18:40:59.491Z,15.13
2018-07-09T18:43:27.030Z,15.10
2018-07-09T18:45:54.137Z,15.12
2018-07-09T18:48:22.064Z,15.12
2018-07-09T18:50:49.199Z,15.13
2018-07-09T18:53:16.303Z,15.18
2018-07-09T18:55:43.524Z,15.20
2018-07-09T18:58:10.601Z,15.15
2018-07-09T19:00:37.739Z,15.12
2018-07-09T19:03:05.194Z,15.10
2018-07-09T19:06:46.778Z,15.05
2018-07-09T19:09:13.936Z,15.11
2018-07-09T19:11:41.728Z,15.01
2018-07-09T19:14:09.400Z,14.95
2018-07-09T19:16:48.321Z,14.95
2018-07-09T19:19:26.995Z,14.95
2018-07-09T19:22:00.199Z,14.93
2018-07-09T19:24:26.655Z,14.96
2018-07-09T19:26:53.102Z,14.97
2018-07-09T19:29:19.211Z,14.90
2018-07-09T19:31:45.321Z,14.87
2018-07-09T19:34:11.459Z,14.91
2018-07-09T19:36:37.671Z,14.81
2018-07-09T19:39:04.542Z,14.82
2018-07-09T19:41:30.711Z,14.84
2018-07-09T19:43:56.770Z,14.85
2018-07-09T19:46:22.924Z,14.85
2018-07-09T19:48:49.059Z,14.84
2018-07-09T19:51:15.203Z,14.77
2018-07-09T19:53:41.494Z,14.77
2018-07-09T19:56:07.620Z,14.81
2018-07-09T19:58:33.720Z,14.78
2018-07-09T20:00:59.881Z,14.74
2018-07-09T20:03:26.075Z,14.81
2018-07-09T20:05:52.249Z,14.73
2018-07-09T20:08:18.396Z,14.78
2018-07-09T20:10:50.343Z,14.78
2018-07-09T20:13:22.148Z,14.80
2018-07-09T20:15:53.877Z,14.74
2018-07-09T20:18:19.994Z,14.86
2018-07-09T20:20:46.122Z,14.76
2018-07-09T20:23:12.227Z,14.72
2018-07-09T20:28:04.499Z,14.64
2018-07-09T20:30:30.607Z,14.69
2018-07-09T20:32:56.843Z,14.65
2018-07-09T20:35:22.982Z,14.54
2018-07-09T20:37:49.082Z,14.50
2018-07-09T20:40:15.272Z,14.50
2018-07-09T20:42:41.419Z,14.47
2018-07-09T20:45:07.530Z,14.47
2018-07-09T20:47:33.964Z,14.40
2018-07-09T20:50:00.115Z,14.39
2018-07-09T20:52:26.285Z,14.54
2018-07-09T20:54:52.400Z,14.45
2018-07-09T20:57:18.780Z,14.44
2018-07-09T20:59:44.893Z,14.50
2018-07-09T21:02:11.007Z,14.35
2018-07-09T21:04:37.141Z,14.38
2018-07-09T21:07:03.680Z,14.43
2018-07-09T21:09:30.890Z,14.33
2018-07-09T21:11:57.643Z,14.27
2018-07-09T21:14:23.791Z,14.21
2018-07-09T21:16:50.008Z,14.31
2018-07-09T21:19:16.133Z,14.23
2018-07-09T21:21:42.279Z,14.17
2018-07-09T21:24:08.438Z,14.16
2018-07-09T21:26:34.574Z,14.17
2018-07-09T21:29:00.687Z,14.25
2018-07-09T21:31:26.828Z,14.35
2018-07-09T21:33:52.990Z,14.30
2018-07-09T21:36:19.093Z,14.14
2018-07-09T21:38:45.220Z,14.02
2018-07-09T21:41:11.792Z,14.01
2018-07-09T21:43:38.156Z,13.98
2018-07-09T21:46:04.399Z,13.80
2018-07-09T21:48:30.951Z,13.66
2018-07-09T21:50:56.998Z,13.57
2018-07-09T21:53:24.084Z,13.50
2018-07-09T21:55:50.316Z,13.48
2018-07-09T21:58:16.431Z,13.43
2018-07-09T22:00:42.563Z,13.30
2018-07-09T22:03:08.693Z,13.29
2018-07-09T22:05:34.841Z,13.29
2018-07-09T22:08:00.993Z,13.21
2018-07-09T22:10:27.109Z,13.12
2018-07-09T22:12:53.222Z,13.09
2018-07-09T22:15:19.369Z,13.06
2018-07-09T22:17:45.487Z,13.13
2018-07-09T22:20:11.613Z,13.09
2018-07-09T22:22:37.704Z,13.28
2018-07-09T22:27:36.996Z,13.17
2018-07-09T22:30:03.104Z,13.05
2018-07-09T22:32:30.219Z,13.05
2018-07-09T22:34:57.329Z,12.99
2018-07-09T22:37:24.455Z,12.91
2018-07-09T22:39:51.573Z,12.89
2018-07-09T22:42:19.156Z,12.82
2018-07-09T22:44:46.377Z,12.85
2018-07-09T22:47:13.462Z,12.79
2018-07-09T22:49:40.604Z,12.72
2018-07-09T22:52:07.871Z,12.66
2018-07-09T22:54:35.318Z,12.64
2018-07-09T22:57:02.460Z,12.65
2018-07-09T22:59:29.626Z,12.64
2018-07-09T23:01:56.754Z,12.66
2018-07-09T23:04:24.109Z,12.69
2018-07-09T23:06:51.184Z,12.60
2018-07-09T23:10:04.212Z,12.66
2018-07-09T23:13:42.381Z,12.65
2018-07-09T23:16:49.338Z,12.68
2018-07-09T23:19:30.146Z,12.68
2018-07-09T23:22:21.013Z,12.71
2018-07-09T23:24:47.147Z,12.63
2018-07-09T23:27:13.374Z,12.59
2018-07-09T23:29:39.523Z,12.60
2018-07-09T23:32:05.619Z,12.57
2018-07-09T23:34:31.776Z,12.58
2018-07-09T23:36:57.866Z,12.54
2018-07-09T23:39:24.009Z,12.56
2018-07-09T23:41:50.149Z,12.59
2018-07-09T23:44:16.268Z,12.55
2018-07-09T23:46:42.354Z,12.49
2018-07-09T23:49:08.500Z,12.55
2018-07-09T23:51:34.977Z,12.54
2018-07-09T23:54:01.093Z,12.55
2018-07-09T23:57:12.384Z,12.52
2018-07-09T23:59:51.655Z,12.51
